Time;durP1;ratioP1;P1;durP2;ratioP2;P2;SDS_P1;SDS_P2;PMS_P1;PMS_P2;Temp;Humidity;BMP_temperature;BMP_pressure;BME280_temperature;BME280_humidity;BME280_pressure;Samples;Min_cycle;Max_cycle;Signal;HPM_P1;HPM_P2
2023/03/20 00:00:57;;;;;;;117.13;62.20;;;;;;;;;;4899976;28;20846;-68
2023/03/20 00:04:26;;;;;;;;;;;;;;;;;;;;;
2023/03/20 00:07:29;;;;;;;109.93;65.53;;;;;;;;;;5032259;28;20312;-69
2023/03/20 00:10:26;;;;;;;112.90;65.47;;;;;;;;;;5005744;28;20589;-69
2023/03/20 00:13:21;;;;;;;113.03;66.97;;;;;;;;;;5024652;28;20714;-69
2023/03/20 00:16:09;;;;;;;105.77;62.93;;;;;;;;;;5021956;28;20597;-69
2023/03/20 00:19:05;;;;;;;;;;;;;;;;;;;;;
2023/03/20 00:21:56;;;;;;;;;;;;;;;;;;;;;
2023/03/20 00:24:53;;;;;;;107.43;65.20;;;;;;;;;;5028687;28;20738;-69
2023/03/20 00:27:57;;;;;;;102.70;63.53;;;;;;;;;;4997702;28;20222;-69
2023/03/20 00:30:52;;;;;;;106.80;65.00;;;;;;;;;;5011223;28;20261;-69
2023/03/20 00:37:29;;;;;;;99.87;59.60;;;;;;;;;;5016471;28;20219;-69
2023/03/20 00:40:21;;;;;;;98.27;60.93;;;;;;;;;;5036867;28;20225;-69
2023/03/20 00:43:03;;;;;;;102.37;61.13;;;;;;;;;;5034863;28;20222;-69
2023/03/20 00:45:40;;;;;;;97.17;59.23;;;;;;;;;;5029648;28;20250;-69
2023/03/20 00:48:49;;;;;;;105.93;65.60;;;;;;;;;;5019404;28;20238;-69
2023/03/20 00:52:04;;;;;;;104.73;61.73;;;;;;;;;;5022022;28;20245;-69
2023/03/20 00:54:36;;;;;;;98.53;57.60;;;;;;;;;;5021157;28;20708;-69
2023/03/20 01:05:19;;;;;;;91.03;55.67;;;;;;;;;;4965057;28;20239;-69
2023/03/20 01:15:28;;;;;;;99.00;55.60;;;;;;;;;;4900702;29;20291;-69
2023/03/20 01:18:05;;;;;;;88.53;54.57;;;;;;;;;;4901842;29;20243;-69
2023/03/20 01:20:52;;;;;;;95.53;58.13;;;;;;;;;;4896817;29;20751;-69
2023/03/20 01:23:25;;;;;;;117.37;62.03;;;;;;;;;;4904157;29;20246;-69
2023/03/20 01:25:59;;;;;;;101.20;57.53;;;;;;;;;;4889091;29;20231;-69
2023/03/20 01:28:58;;;;;;;114.30;57.27;;;;;;;;;;4905345;29;20761;-69
2023/03/20 01:31:38;;;;;;;99.53;56.83;;;;;;;;;;4885291;28;20230;-69
2023/03/20 01:34:38;;;;;;;83.40;54.20;;;;;;;;;;4892343;28;20620;-69
2023/03/20 01:37:30;;;;;;;103.83;54.00;;;;;;;;;;4904596;29;20617;-69
2023/03/20 02:15:32;;;;;;;202.93;58.37;;;;;;;;;;4625188;28;20239;-68
2023/03/20 02:18:13;;;;;;;79.53;48.67;;;;;;;;;;4941264;28;20279;-68
2023/03/20 02:20:52;;;;;;;112.53;47.97;;;;;;;;;;4996028;28;20239;-68
2023/03/20 02:23:25;;;;;;;70.13;45.50;;;;;;;;;;5022264;28;20352;-68
2023/03/20 02:26:28;;;;;;;87.27;44.93;;;;;;;;;;4993292;28;20310;-68
2023/03/20 02:28:58;;;;;;;285.70;51.73;;;;;;;;;;4945183;28;20228;-68
2023/03/20 02:31:27;;;;;;;349.40;53.20;;;;;;;;;;5011667;28;20239;-68
2023/03/20 02:34:05;;;;;;;73.53;41.40;;;;;;;;;;5029843;28;20217;-68
2023/03/20 02:36:47;;;;;;;64.53;41.70;;;;;;;;;;5042161;28;20229;-68
2023/03/20 02:39:16;;;;;;;86.53;41.73;;;;;;;;;;5042496;28;20574;-68
2023/03/20 02:41:44;;;;;;;143.10;38.63;;;;;;;;;;4981189;28;20236;-68
2023/03/20 02:44:30;;;;;;;100.63;38.67;;;;;;;;;;4967079;28;20867;-68
2023/03/20 02:47:13;;;;;;;66.93;38.73;;;;;;;;;;4978842;28;20307;-68
2023/03/20 02:49:44;;;;;;;55.77;36.47;;;;;;;;;;4982393;28;20223;-68
2023/03/20 02:52:32;;;;;;;84.83;37.30;;;;;;;;;;5003098;28;20314;-68
2023/03/20 02:55:05;;;;;;;91.50;38.50;;;;;;;;;;4987587;28;20257;-68
2023/03/20 02:57:59;;;;;;;52.77;34.97;;;;;;;;;;4996735;28;20242;-68
2023/03/20 03:00:55;;;;;;;66.43;36.17;;;;;;;;;;5004508;28;20218;-68
2023/03/20 03:03:33;;;;;;;81.57;37.17;;;;;;;;;;5000464;28;20230;-68
2023/03/20 03:06:08;;;;;;;59.43;35.90;;;;;;;;;;5017995;28;20726;-68
2023/03/20 03:08:39;;;;;;;46.83;33.67;;;;;;;;;;5020203;28;20825;-68
2023/03/20 03:11:07;;;;;;;72.07;34.87;;;;;;;;;;4994547;28;221796;-68
2023/03/20 03:13:55;;;;;;;50.50;34.63;;;;;;;;;;4994396;28;20235;-68
2023/03/20 03:16:29;;;;;;;46.60;32.70;;;;;;;;;;4995026;28;20244;-68
2023/03/20 03:19:02;;;;;;;43.77;32.10;;;;;;;;;;4956463;28;20320;-68
2023/03/20 03:21:29;;;;;;;42.50;30.27;;;;;;;;;;4970909;28;20231;-68
2023/03/20 03:23:56;;;;;;;45.20;31.97;;;;;;;;;;4999338;28;20236;-68
2023/03/20 03:26:24;;;;;;;48.17;32.33;;;;;;;;;;4998179;28;20302;-68
2023/03/20 03:28:57;;;;;;;59.77;39.17;;;;;;;;;;4966633;28;20730;-68
2023/03/20 03:31:23;;;;;;;66.90;43.13;;;;;;;;;;4967998;28;20250;-68
2023/03/20 03:33:51;;;;;;;67.10;43.80;;;;;;;;;;5002238;28;20222;-68
2023/03/20 03:36:20;;;;;;;60.07;40.20;;;;;;;;;;5000027;28;20254;-68
2023/03/20 03:39:13;;;;;;;60.17;40.07;;;;;;;;;;5017181;28;20234;-68
2023/03/20 03:41:42;;;;;;;50.77;35.53;;;;;;;;;;5000277;28;20241;-69
2023/03/20 03:44:14;;;;;;;56.07;38.70;;;;;;;;;;4994729;28;20233;-68
2023/03/20 03:46:47;;;;;;;50.80;36.77;;;;;;;;;;4991482;28;20225;-68
2023/03/20 03:49:18;;;;;;;56.03;38.17;;;;;;;;;;5021387;28;20233;-68
2023/03/20 03:51:45;;;;;;;59.50;39.73;;;;;;;;;;5021343;28;20314;-68
2023/03/20 03:54:16;;;;;;;55.67;38.07;;;;;;;;;;5023341;28;20223;-69
2023/03/20 03:56:52;;;;;;;51.97;35.57;;;;;;;;;;4997022;28;20293;-69
2023/03/20 03:59:23;;;;;;;50.33;33.80;;;;;;;;;;4982607;28;20712;-69
2023/03/20 04:01:50;;;;;;;49.23;34.30;;;;;;;;;;5018471;28;20230;-69
2023/03/20 04:04:17;;;;;;;45.83;32.23;;;;;;;;;;5004528;28;20226;-69
2023/03/20 04:06:45;;;;;;;46.23;32.63;;;;;;;;;;5004000;28;20254;-68
2023/03/20 04:09:12;;;;;;;48.70;34.60;;;;;;;;;;4976631;28;20760;-68
2023/03/20 04:11:39;;;;;;;46.03;33.17;;;;;;;;;;4998010;28;20232;-69
2023/03/20 04:14:07;;;;;;;48.83;33.33;;;;;;;;;;5005818;28;20227;-70
2023/03/20 04:16:34;;;;;;;48.30;33.47;;;;;;;;;;4999268;28;20241;-69
2023/03/20 04:19:02;;;;;;;50.13;33.87;;;;;;;;;;5019912;28;20223;-67
2023/03/20 04:21:29;;;;;;;44.03;31.67;;;;;;;;;;5010907;28;20250;-68
2023/03/20 04:23:56;;;;;;;41.13;30.43;;;;;;;;;;5000590;28;20230;-67
2023/03/20 04:26:23;;;;;;;45.07;30.87;;;;;;;;;;4987630;28;20949;-68
2023/03/20 04:28:51;;;;;;;42.90;30.97;;;;;;;;;;4986553;28;20235;-68
2023/03/20 04:31:35;;;;;;;44.83;30.37;;;;;;;;;;4983426;28;20291;-67
2023/03/20 04:34:16;;;;;;;49.73;32.73;;;;;;;;;;5004763;28;20306;-69
2023/03/20 04:37:06;;;;;;;50.10;34.37;;;;;;;;;;4990256;28;20630;-67
2023/03/20 04:39:57;;;;;;;57.80;38.80;;;;;;;;;;4971755;28;20314;-69
2023/03/20 04:42:24;;;;;;;55.80;39.47;;;;;;;;;;4997873;28;20229;-69
2023/03/20 04:44:56;;;;;;;50.47;33.60;;;;;;;;;;5015589;28;20223;-69
2023/03/20 04:47:23;;;;;;;56.30;37.00;;;;;;;;;;5002408;28;20234;-69
2023/03/20 04:49:50;;;;;;;51.47;36.80;;;;;;;;;;5016029;28;20235;-69
2023/03/20 04:52:18;;;;;;;58.73;38.50;;;;;;;;;;4993369;28;20235;-69
2023/03/20 04:54:44;;;;;;;59.17;38.90;;;;;;;;;;5003276;28;20267;-69
2023/03/20 04:57:11;;;;;;;53.83;37.37;;;;;;;;;;5010261;28;20596;-69
2023/03/20 04:59:38;;;;;;;52.60;37.80;;;;;;;;;;5016882;28;20306;-69
2023/03/20 05:02:05;;;;;;;67.77;42.47;;;;;;;;;;5004949;28;20277;-67
2023/03/20 05:04:32;;;;;;;55.50;38.43;;;;;;;;;;5021107;28;20570;-69
2023/03/20 05:06:59;;;;;;;56.80;38.43;;;;;;;;;;5037290;28;20258;-69
2023/03/20 05:09:35;;;;;;;56.70;38.00;;;;;;;;;;5020634;28;20238;-68
2023/03/20 05:12:04;;;;;;;53.80;37.20;;;;;;;;;;4993550;28;20230;-69
2023/03/20 05:14:53;;;;;;;56.47;37.17;;;;;;;;;;4948871;28;20314;-67
2023/03/20 05:17:40;;;;;;;51.33;36.73;;;;;;;;;;5003571;28;20239;-70
2023/03/20 05:20:26;;;;;;;49.53;34.97;;;;;;;;;;5027822;28;20238;-68
2023/03/20 05:23:25;;;;;;;51.17;34.83;;;;;;;;;;4987342;28;20307;-68
2023/03/20 05:26:21;;;;;;;50.20;34.87;;;;;;;;;;5016816;28;20230;-69
2023/03/20 05:28:54;;;;;;;53.93;36.60;;;;;;;;;;5028317;28;20823;-68
2023/03/20 05:31:40;;;;;;;54.67;36.93;;;;;;;;;;5034656;28;22412;-68
2023/03/20 05:34:27;;;;;;;52.47;32.37;;;;;;;;;;5031558;28;20222;-69
2023/03/20 05:37:09;;;;;;;45.37;31.37;;;;;;;;;;5029028;28;20233;-69
2023/03/20 05:39:55;;;;;;;46.83;32.23;;;;;;;;;;4999193;28;20598;-69
2023/03/20 05:42:34;;;;;;;45.47;32.40;;;;;;;;;;5017215;28;20215;-69
2023/03/20 05:45:30;;;;;;;48.87;32.97;;;;;;;;;;5004826;28;20703;-69
2023/03/20 05:48:10;;;;;;;43.77;32.13;;;;;;;;;;5025771;28;20319;-69
2023/03/20 05:50:39;;;;;;;46.23;33.30;;;;;;;;;;5021501;28;20222;-69
2023/03/20 05:53:24;;;;;;;46.23;30.87;;;;;;;;;;5036106;28;20226;-69
2023/03/20 05:56:08;;;;;;;47.17;31.97;;;;;;;;;;5042638;28;20225;-69
2023/03/20 05:58:38;;;;;;;45.17;32.37;;;;;;;;;;5025054;28;20305;-70
2023/03/20 06:01:40;;;;;;;45.27;33.07;;;;;;;;;;4966974;28;20286;-70
2023/03/20 06:04:19;;;;;;;44.20;31.17;;;;;;;;;;5001131;28;20697;-70
2023/03/20 06:07:05;;;;;;;51.47;34.07;;;;;;;;;;5019672;28;20237;-69
2023/03/20 06:09:33;;;;;;;44.77;32.83;;;;;;;;;;5019878;28;20227;-69
2023/03/20 06:12:04;;;;;;;52.00;34.00;;;;;;;;;;5030342;28;20230;-69
2023/03/20 06:14:31;;;;;;;49.93;34.40;;;;;;;;;;5013043;28;20308;-68
2023/03/20 06:17:01;;;;;;;47.50;34.07;;;;;;;;;;5004212;28;20601;-68
2023/03/20 06:19:28;;;;;;;46.53;34.33;;;;;;;;;;4990802;28;20229;-69
2023/03/20 06:21:55;;;;;;;43.77;33.30;;;;;;;;;;5028034;28;27772;-68
2023/03/20 06:24:23;;;;;;;46.40;33.60;;;;;;;;;;5004970;28;20237;-68
2023/03/20 06:26:50;;;;;;;49.10;34.03;;;;;;;;;;5037168;28;20282;-68
2023/03/20 06:29:17;;;;;;;44.70;33.47;;;;;;;;;;5022737;28;20250;-69
2023/03/20 06:31:45;;;;;;;45.77;34.30;;;;;;;;;;5022742;28;20827;-68
2023/03/20 06:34:22;;;;;;;51.27;34.90;;;;;;;;;;5020939;28;20214;-68
2023/03/20 06:36:49;;;;;;;45.00;33.43;;;;;;;;;;5020025;28;20571;-68
2023/03/20 06:39:19;;;;;;;47.37;35.00;;;;;;;;;;5032018;28;20256;-68
2023/03/20 06:41:47;;;;;;;46.23;33.93;;;;;;;;;;5003065;28;20231;-68
2023/03/20 06:44:14;;;;;;;45.23;33.30;;;;;;;;;;5022446;28;20235;-68
2023/03/20 06:47:04;;;;;;;45.10;31.87;;;;;;;;;;5036568;28;20226;-68
2023/03/20 06:49:31;;;;;;;39.70;31.17;;;;;;;;;;5025266;28;20233;-68
2023/03/20 06:51:58;;;;;;;37.17;26.87;;;;;;;;;;5001311;28;20230;-68
2023/03/20 06:54:25;;;;;;;35.47;26.13;;;;;;;;;;5023428;28;20230;-68
2023/03/20 06:56:53;;;;;;;33.70;24.80;;;;;;;;;;5026488;28;20684;-70
2023/03/20 06:59:20;;;;;;;35.63;25.23;;;;;;;;;;4972037;28;20230;-70
2023/03/20 07:01:48;;;;;;;32.43;24.53;;;;;;;;;;5014344;28;20238;-69
2023/03/20 07:04:16;;;;;;;30.20;22.30;;;;;;;;;;5000027;28;20393;-69
2023/03/20 07:06:48;;;;;;;31.97;23.83;;;;;;;;;;4998939;28;20223;-70
2023/03/20 07:09:16;;;;;;;29.77;21.37;;;;;;;;;;4999946;28;20231;-70
2023/03/20 07:11:43;;;;;;;32.53;24.27;;;;;;;;;;5008297;28;20661;-69
2023/03/20 07:14:11;;;;;;;32.53;24.30;;;;;;;;;;5008203;28;20226;-68
2023/03/20 07:16:53;;;;;;;30.23;22.53;;;;;;;;;;5029516;28;20226;-68
2023/03/20 07:19:20;;;;;;;28.50;21.23;;;;;;;;;;5027243;28;20213;-68
2023/03/20 07:21:52;;;;;;;29.07;21.00;;;;;;;;;;5024119;28;20238;-68
2023/03/20 07:24:19;;;;;;;31.70;21.67;;;;;;;;;;4977010;28;20253;-67
2023/03/20 07:26:45;;;;;;;28.17;20.63;;;;;;;;;;5031645;28;20279;-68
2023/03/20 07:29:12;;;;;;;27.33;20.87;;;;;;;;;;5012832;28;20852;-68
2023/03/20 07:31:40;;;;;;;41.70;25.87;;;;;;;;;;5014614;28;20307;-67
2023/03/20 07:34:14;;;;;;;31.13;21.97;;;;;;;;;;4993981;28;20828;-67
2023/03/20 07:36:42;;;;;;;28.63;20.70;;;;;;;;;;5020004;28;20234;-68
2023/03/20 07:39:10;;;;;;;32.03;21.23;;;;;;;;;;5026207;28;20238;-68
2023/03/20 07:41:41;;;;;;;30.93;21.03;;;;;;;;;;5015125;28;20725;-67
2023/03/20 07:44:18;;;;;;;31.37;21.77;;;;;;;;;;5020906;28;20270;-68
2023/03/20 07:46:49;;;;;;;30.27;21.77;;;;;;;;;;5003962;28;20646;-68
2023/03/20 07:49:19;;;;;;;36.37;23.50;;;;;;;;;;5033474;28;20292;-69
2023/03/20 07:51:46;;;;;;;31.20;22.97;;;;;;;;;;5031038;28;20233;-70
2023/03/20 07:54:14;;;;;;;29.80;20.57;;;;;;;;;;5040452;28;20228;-68
2023/03/20 07:56:40;;;;;;;28.07;20.63;;;;;;;;;;5026363;28;20238;-68
2023/03/20 07:59:07;;;;;;;27.37;20.17;;;;;;;;;;5021711;28;20226;-69
2023/03/20 08:01:34;;;;;;;28.37;20.17;;;;;;;;;;5013870;28;20225;-69
2023/03/20 08:04:00;;;;;;;28.13;19.20;;;;;;;;;;5023345;28;20320;-70
2023/03/20 08:06:28;;;;;;;29.27;21.13;;;;;;;;;;5035306;28;20629;-69
2023/03/20 08:08:55;;;;;;;31.03;21.47;;;;;;;;;;5035338;28;20233;-69
2023/03/20 08:11:21;;;;;;;28.60;20.87;;;;;;;;;;5025297;28;20241;-70
2023/03/20 08:13:49;;;;;;;30.23;20.87;;;;;;;;;;5024110;28;20263;-69
2023/03/20 08:16:18;;;;;;;29.40;21.13;;;;;;;;;;5030055;28;20226;-70
2023/03/20 08:18:45;;;;;;;29.73;21.87;;;;;;;;;;5020801;28;20241;-69
2023/03/20 08:21:11;;;;;;;29.07;21.93;;;;;;;;;;5021945;28;20307;-70
2023/03/20 08:23:38;;;;;;;28.70;21.63;;;;;;;;;;5040650;28;20238;-68
2023/03/20 08:26:05;;;;;;;29.57;21.50;;;;;;;;;;5018505;28;20238;-67
2023/03/20 08:28:32;;;;;;;30.03;21.17;;;;;;;;;;5024522;28;24894;-69
2023/03/20 08:31:12;;;;;;;26.03;18.93;;;;;;;;;;5027493;28;20226;-69
2023/03/20 08:33:39;;;;;;;25.40;19.40;;;;;;;;;;5043512;28;20217;-68
2023/03/20 08:36:06;;;;;;;23.67;18.43;;;;;;;;;;5028019;28;20781;-67
2023/03/20 08:38:33;;;;;;;22.37;18.17;;;;;;;;;;5039422;28;20230;-67
2023/03/20 08:41:00;;;;;;;24.87;17.77;;;;;;;;;;5044122;28;20312;-67
2023/03/20 08:43:27;;;;;;;23.20;17.40;;;;;;;;;;5038351;28;20240;-68
2023/03/20 08:45:53;;;;;;;21.93;17.33;;;;;;;;;;5013729;28;20745;-69
2023/03/20 08:48:20;;;;;;;23.03;16.23;;;;;;;;;;4997135;28;20643;-68
2023/03/20 08:50:47;;;;;;;18.87;16.57;;;;;;;;;;5015929;28;20225;-68
2023/03/20 08:53:14;;;;;;;20.53;15.70;;;;;;;;;;5003820;28;20227;-69
2023/03/20 08:55:46;;;;;;;17.97;15.10;;;;;;;;;;5015024;28;20231;-69
2023/03/20 08:58:13;;;;;;;17.00;14.10;;;;;;;;;;4986463;28;20226;-68
2023/03/20 09:00:41;;;;;;;17.60;13.03;;;;;;;;;;5018013;28;20593;-68
2023/03/20 09:03:14;;;;;;;18.80;13.60;;;;;;;;;;5021028;28;20226;-68
2023/03/20 09:05:42;;;;;;;17.73;13.07;;;;;;;;;;5016826;28;20230;-68
2023/03/20 09:08:09;;;;;;;15.80;13.30;;;;;;;;;;5004732;28;20250;-68
2023/03/20 09:10:36;;;;;;;18.60;13.30;;;;;;;;;;5016639;28;20575;-68
2023/03/20 09:13:02;;;;;;;16.43;12.40;;;;;;;;;;5023602;28;20215;-66
2023/03/20 09:15:50;;;;;;;15.17;11.23;;;;;;;;;;5006261;28;20231;-66
2023/03/20 09:18:17;;;;;;;15.53;12.20;;;;;;;;;;5010995;28;20239;-66
2023/03/20 09:20:45;;;;;;;17.17;12.47;;;;;;;;;;5007529;28;20285;-66
2023/03/20 09:23:12;;;;;;;16.63;11.47;;;;;;;;;;5020259;28;20249;-67
2023/03/20 09:25:39;;;;;;;12.40;9.37;;;;;;;;;;5036053;28;20233;-67
2023/03/20 09:28:06;;;;;;;10.53;8.73;;;;;;;;;;5016968;28;20225;-68
2023/03/20 09:30:32;;;;;;;12.10;9.03;;;;;;;;;;5001994;28;20227;-67
2023/03/20 09:33:00;;;;;;;12.43;8.83;;;;;;;;;;5038713;28;20220;-69
2023/03/20 09:35:27;;;;;;;12.37;8.03;;;;;;;;;;4985609;28;20301;-68
2023/03/20 09:37:55;;;;;;;13.97;10.30;;;;;;;;;;5021876;28;20229;-67
2023/03/20 09:40:25;;;;;;;12.57;10.57;;;;;;;;;;5033251;28;20422;-67
2023/03/20 09:42:53;;;;;;;14.20;11.00;;;;;;;;;;5026170;28;20223;-71
2023/03/20 09:45:23;;;;;;;15.83;11.00;;;;;;;;;;5006292;28;20253;-67
2023/03/20 09:47:55;;;;;;;12.73;10.40;;;;;;;;;;5035856;28;20246;-69
2023/03/20 09:50:31;;;;;;;16.67;10.63;;;;;;;;;;5010930;28;20230;-69
2023/03/20 09:53:17;;;;;;;15.17;9.87;;;;;;;;;;5024672;28;20643;-66
2023/03/20 09:55:44;;;;;;;14.00;10.33;;;;;;;;;;5034110;28;20241;-67
2023/03/20 09:58:17;;;;;;;12.97;9.60;;;;;;;;;;5041962;28;20226;-67
2023/03/20 10:01:06;;;;;;;13.87;9.67;;;;;;;;;;5010607;28;20234;-69
2023/03/20 10:03:42;;;;;;;12.27;9.00;;;;;;;;;;5018910;28;20236;-67
2023/03/20 10:06:13;;;;;;;12.33;8.60;;;;;;;;;;4992924;28;20273;-66
2023/03/20 10:08:41;;;;;;;13.57;8.37;;;;;;;;;;4999713;28;20242;-66
2023/03/20 10:11:23;;;;;;;12.07;9.00;;;;;;;;;;5022546;28;20230;-69
2023/03/20 10:14:02;;;;;;;11.57;8.67;;;;;;;;;;4995645;28;20230;-69
2023/03/20 10:16:29;;;;;;;11.70;8.60;;;;;;;;;;5024920;28;20261;-69
2023/03/20 10:19:15;;;;;;;7.90;6.47;;;;;;;;;;5007707;28;20226;-76
2023/03/20 10:21:43;;;;;;;10.40;7.33;;;;;;;;;;4985277;28;20238;-72
2023/03/20 10:24:18;;;;;;;10.63;7.63;;;;;;;;;;5017494;28;20241;-74
2023/03/20 10:26:45;;;;;;;12.03;8.20;;;;;;;;;;5027788;28;20234;-72
2023/03/20 10:29:31;;;;;;;10.97;8.17;;;;;;;;;;4988265;28;20309;-72
2023/03/20 10:31:58;;;;;;;13.60;9.20;;;;;;;;;;4990622;28;20230;-72
2023/03/20 10:34:34;;;;;;;13.90;10.90;;;;;;;;;;5011040;28;231769;-71
2023/03/20 10:37:20;;;;;;;14.47;9.83;;;;;;;;;;4993460;28;20226;-70
2023/03/20 10:39:56;;;;;;;13.97;10.53;;;;;;;;;;4971774;28;20690;-70
2023/03/20 10:42:31;;;;;;;12.23;9.37;;;;;;;;;;4995975;28;20248;-73
2023/03/20 10:45:17;;;;;;;13.20;9.73;;;;;;;;;;5008958;28;20230;-72
2023/03/20 10:47:44;;;;;;;13.93;9.37;;;;;;;;;;4987306;28;20685;-71
2023/03/20 10:50:18;;;;;;;14.30;10.37;;;;;;;;;;5015601;28;20230;-69
2023/03/20 10:52:45;;;;;;;16.07;11.10;;;;;;;;;;5014842;28;20235;-72
2023/03/20 10:55:17;;;;;;;17.23;11.23;;;;;;;;;;5000247;28;20234;-71
2023/03/20 10:57:47;;;;;;;18.23;13.37;;;;;;;;;;4997520;28;20686;-70
2023/03/20 11:00:23;;;;;;;17.07;11.63;;;;;;;;;;4988027;28;20235;-70
2023/03/20 11:02:50;;;;;;;16.40;11.73;;;;;;;;;;4998293;28;20681;-71
2023/03/20 11:05:19;;;;;;;19.40;13.20;;;;;;;;;;5021751;28;20230;-73
2023/03/20 11:07:46;;;;;;;21.80;14.30;;;;;;;;;;5001573;28;20292;-74
2023/03/20 11:10:15;;;;;;;21.37;14.87;;;;;;;;;;4988142;28;20265;-71
2023/03/20 11:12:43;;;;;;;23.17;14.03;;;;;;;;;;4973458;28;20231;-72
2023/03/20 11:15:15;;;;;;;26.17;16.37;;;;;;;;;;5038861;28;20232;-73
2023/03/20 11:17:42;;;;;;;24.47;16.20;;;;;;;;;;5022968;28;20237;-70
2023/03/20 11:20:09;;;;;;;28.17;15.93;;;;;;;;;;5040933;28;20825;-69
2023/03/20 11:22:36;;;;;;;25.63;15.83;;;;;;;;;;5005837;28;20769;-72
2023/03/20 11:25:03;;;;;;;27.40;17.27;;;;;;;;;;5041623;28;20237;-74
2023/03/20 11:27:30;;;;;;;23.27;14.67;;;;;;;;;;5003091;28;230609;-71
2023/03/20 11:30:02;;;;;;;26.70;15.43;;;;;;;;;;5011203;28;20814;-73
2023/03/20 11:32:31;;;;;;;24.50;15.53;;;;;;;;;;5015422;28;20261;-73
2023/03/20 11:35:08;;;;;;;24.23;14.83;;;;;;;;;;5021970;28;20265;-70
2023/03/20 11:37:39;;;;;;;24.50;14.80;;;;;;;;;;5019113;28;20233;-70
2023/03/20 11:40:11;;;;;;;26.53;15.93;;;;;;;;;;4997174;28;20890;-71
2023/03/20 11:42:38;;;;;;;25.67;15.30;;;;;;;;;;5019333;28;20272;-69
2023/03/20 11:45:12;;;;;;;25.97;15.07;;;;;;;;;;5016301;28;20284;-71
2023/03/20 11:47:39;;;;;;;24.70;14.97;;;;;;;;;;4992782;28;226395;-70
2023/03/20 11:50:06;;;;;;;27.53;16.10;;;;;;;;;;5022035;28;20315;-73
2023/03/20 11:52:34;;;;;;;28.10;15.70;;;;;;;;;;5002007;28;20234;-70
2023/03/20 11:55:02;;;;;;;24.30;12.87;;;;;;;;;;4983698;28;20625;-74
2023/03/20 11:57:30;;;;;;;23.00;14.27;;;;;;;;;;5001591;28;20230;-72
2023/03/20 11:59:57;;;;;;;20.03;12.80;;;;;;;;;;4991637;28;218411;-70
2023/03/20 12:02:24;;;;;;;21.83;12.33;;;;;;;;;;5012685;28;20222;-73
2023/03/20 12:04:51;;;;;;;26.80;14.50;;;;;;;;;;5025191;28;20735;-73
2023/03/20 12:07:21;;;;;;;20.87;11.93;;;;;;;;;;4989658;28;20230;-75
2023/03/20 12:09:50;;;;;;;20.43;11.90;;;;;;;;;;4992481;28;20716;-72
2023/03/20 12:12:17;;;;;;;18.97;10.30;;;;;;;;;;5015051;28;20224;-70
2023/03/20 12:14:50;;;;;;;18.97;10.50;;;;;;;;;;5037029;28;20229;-68
2023/03/20 12:17:17;;;;;;;21.30;11.37;;;;;;;;;;5037592;28;20716;-73
2023/03/20 12:19:43;;;;;;;23.10;12.20;;;;;;;;;;4993220;28;20247;-73
2023/03/20 12:22:15;;;;;;;16.37;9.53;;;;;;;;;;5010425;28;20231;-69
2023/03/20 12:25:01;;;;;;;16.20;9.27;;;;;;;;;;5018882;28;20226;-77
2023/03/20 12:27:37;;;;;;;15.97;9.10;;;;;;;;;;4972091;28;20592;-76
2023/03/20 12:30:05;;;;;;;12.60;6.73;;;;;;;;;;4972839;28;219074;-75
2023/03/20 12:32:40;;;;;;;14.77;8.33;;;;;;;;;;4997127;28;217933;-81
2023/03/20 12:35:15;;;;;;;17.47;10.47;;;;;;;;;;4983330;28;220072;-80
2023/03/20 12:37:42;;;;;;;17.50;9.73;;;;;;;;;;5029912;28;217551;-77
2023/03/20 12:40:11;;;;;;;17.67;9.90;;;;;;;;;;4960208;28;218110;-75
2023/03/20 12:42:44;;;;;;;14.40;7.57;;;;;;;;;;4991912;28;218531;-74
2023/03/20 12:45:17;;;;;;;17.23;9.20;;;;;;;;;;5005631;28;218980;-81
2023/03/20 12:48:03;;;;;;;22.27;10.97;;;;;;;;;;4973172;28;220174;-82
2023/03/20 12:50:40;;;;;;;19.13;9.80;;;;;;;;;;4998249;28;673090;-74
2023/03/20 12:53:13;;;;;;;20.73;11.63;;;;;;;;;;4939647;28;226737;-74
2023/03/20 12:55:59;;;;;;;14.87;8.43;;;;;;;;;;4991538;28;20246;-71
2023/03/20 12:58:39;;;;;;;17.70;9.43;;;;;;;;;;4987003;28;20256;-76
2023/03/20 13:01:26;;;;;;;22.67;12.47;;;;;;;;;;5026097;28;20264;-70
2023/03/20 13:03:53;;;;;;;12.87;7.10;;;;;;;;;;5004563;28;20238;-72
2023/03/20 13:06:23;;;;;;;10.23;5.60;;;;;;;;;;5004906;28;20238;-71
2023/03/20 13:08:50;;;;;;;19.20;11.10;;;;;;;;;;4984672;28;20223;-74
2023/03/20 13:11:23;;;;;;;19.47;11.07;;;;;;;;;;5000935;28;20314;-70
2023/03/20 13:13:49;;;;;;;16.00;9.63;;;;;;;;;;5005603;28;20827;-71
2023/03/20 13:16:22;;;;;;;15.90;10.13;;;;;;;;;;5023418;28;20233;-72
2023/03/20 13:18:58;;;;;;;14.17;8.00;;;;;;;;;;4916423;28;20223;-71
2023/03/20 13:21:34;;;;;;;14.93;9.03;;;;;;;;;;4971329;28;217950;-77
2023/03/20 13:24:06;;;;;;;14.87;8.43;;;;;;;;;;4971870;28;220820;-75
2023/03/20 13:26:36;;;;;;;15.27;8.83;;;;;;;;;;4984703;28;20243;-71
2023/03/20 13:29:05;;;;;;;16.70;8.60;;;;;;;;;;5009621;28;20282;-71
2023/03/20 13:31:35;;;;;;;12.00;7.47;;;;;;;;;;4980943;28;20224;-74
2023/03/20 13:34:11;;;;;;;13.30;8.30;;;;;;;;;;4930319;28;20241;-71
2023/03/20 13:36:56;;;;;;;9.83;5.47;;;;;;;;;;4991936;28;219222;-72
2023/03/20 13:39:30;;;;;;;11.63;6.93;;;;;;;;;;5011246;28;20234;-72
2023/03/20 13:41:58;;;;;;;11.53;6.40;;;;;;;;;;5037557;28;20234;-70
2023/03/20 13:44:26;;;;;;;8.33;4.60;;;;;;;;;;5021831;28;20763;-71
2023/03/20 13:46:53;;;;;;;8.17;4.43;;;;;;;;;;5037125;28;20908;-72
2023/03/20 13:49:26;;;;;;;9.17;5.43;;;;;;;;;;4995302;28;20242;-75
2023/03/20 13:51:56;;;;;;;8.13;5.10;;;;;;;;;;5000729;28;20706;-74
2023/03/20 13:54:25;;;;;;;9.23;5.57;;;;;;;;;;4986768;28;20254;-73
2023/03/20 13:57:10;;;;;;;10.03;5.67;;;;;;;;;;4957349;28;218243;-78
2023/03/20 13:59:56;;;;;;;9.23;5.70;;;;;;;;;;4947625;28;20238;-69
2023/03/20 14:02:23;;;;;;;10.37;5.63;;;;;;;;;;4985784;28;21558;-69
2023/03/20 14:04:51;;;;;;;10.20;6.00;;;;;;;;;;4998510;28;20246;-71
2023/03/20 14:07:28;;;;;;;10.10;6.10;;;;;;;;;;4997830;28;20238;-71
2023/03/20 14:09:56;;;;;;;11.37;6.63;;;;;;;;;;4985925;28;20299;-71
2023/03/20 14:12:24;;;;;;;11.20;7.17;;;;;;;;;;4998451;28;20736;-70
2023/03/20 14:14:57;;;;;;;17.10;9.07;;;;;;;;;;4981151;28;20250;-70
2023/03/20 14:17:31;;;;;;;11.73;6.87;;;;;;;;;;5000227;28;20917;-71
2023/03/20 14:20:08;;;;;;;12.20;6.40;;;;;;;;;;4989288;28;20275;-70
2023/03/20 14:22:35;;;;;;;12.37;6.73;;;;;;;;;;4982032;28;20242;-70
2023/03/20 14:25:07;;;;;;;10.50;5.53;;;;;;;;;;4985932;28;20244;-70
2023/03/20 14:27:34;;;;;;;10.67;5.87;;;;;;;;;;4968504;28;20223;-70
2023/03/20 14:30:28;;;;;;;9.17;5.67;;;;;;;;;;4992594;28;20227;-70
2023/03/20 14:33:22;;;;;;;11.13;5.50;;;;;;;;;;5003913;28;20316;-69
2023/03/20 14:35:50;;;;;;;10.70;5.47;;;;;;;;;;4976418;28;20230;-70
2023/03/20 14:38:19;;;;;;;7.27;4.00;;;;;;;;;;4993309;28;20234;-69
2023/03/20 14:41:08;;;;;;;9.03;3.90;;;;;;;;;;4997672;28;20227;-70
2023/03/20 14:43:35;;;;;;;7.63;4.93;;;;;;;;;;5001152;28;24711;-69
2023/03/20 14:46:02;;;;;;;10.20;5.07;;;;;;;;;;5018374;28;20782;-70
2023/03/20 14:48:30;;;;;;;8.43;5.27;;;;;;;;;;5016518;28;20226;-69
2023/03/20 14:51:03;;;;;;;8.53;4.80;;;;;;;;;;5017714;28;20626;-70
2023/03/20 14:53:32;;;;;;;8.77;4.77;;;;;;;;;;5001326;28;20227;-70
2023/03/20 14:56:09;;;;;;;10.20;5.30;;;;;;;;;;4990118;28;20228;-70
2023/03/20 14:58:39;;;;;;;8.90;4.70;;;;;;;;;;4984639;28;20223;-70
2023/03/20 15:01:06;;;;;;;10.30;5.10;;;;;;;;;;4996573;28;20328;-72
2023/03/20 15:03:33;;;;;;;9.83;4.77;;;;;;;;;;4976426;28;20312;-71
2023/03/20 15:06:01;;;;;;;8.87;4.73;;;;;;;;;;4982805;28;20756;-70
2023/03/20 15:08:30;;;;;;;9.07;4.90;;;;;;;;;;4951688;28;20780;-68
2023/03/20 15:10:57;;;;;;;8.63;4.60;;;;;;;;;;5005473;28;20219;-70
2023/03/20 15:13:24;;;;;;;7.70;4.37;;;;;;;;;;4966065;28;20215;-69
2023/03/20 15:15:51;;;;;;;8.97;4.07;;;;;;;;;;4978327;28;20227;-73
2023/03/20 15:18:19;;;;;;;10.30;4.20;;;;;;;;;;4969142;28;20231;-68
2023/03/20 15:20:46;;;;;;;8.53;4.70;;;;;;;;;;5002081;28;20238;-70
2023/03/20 15:23:13;;;;;;;8.33;4.30;;;;;;;;;;4980410;28;23951;-70
2023/03/20 15:25:42;;;;;;;7.20;3.73;;;;;;;;;;4985079;28;20246;-69
2023/03/20 15:28:24;;;;;;;8.07;4.70;;;;;;;;;;4999510;28;20645;-69
2023/03/20 15:30:54;;;;;;;8.77;4.80;;;;;;;;;;4971571;28;20247;-68
2023/03/20 15:33:21;;;;;;;8.67;5.40;;;;;;;;;;4978410;28;20230;-73
2023/03/20 15:35:48;;;;;;;8.50;4.83;;;;;;;;;;4978642;28;20231;-70
2023/03/20 15:38:15;;;;;;;8.07;4.70;;;;;;;;;;5004118;28;20230;-72
2023/03/20 15:40:42;;;;;;;6.40;3.87;;;;;;;;;;5020782;28;20413;-71
2023/03/20 15:43:18;;;;;;;7.13;4.10;;;;;;;;;;5018722;28;20293;-71
2023/03/20 15:45:45;;;;;;;6.90;3.53;;;;;;;;;;4986285;28;20794;-71
2023/03/20 15:48:15;;;;;;;6.83;3.57;;;;;;;;;;5003564;28;20305;-71
2023/03/20 15:50:44;;;;;;;6.73;3.30;;;;;;;;;;5008822;28;227059;-69
2023/03/20 15:53:15;;;;;;;7.00;3.73;;;;;;;;;;5012888;28;20233;-70
2023/03/20 15:55:46;;;;;;;5.30;3.40;;;;;;;;;;5001024;28;20239;-72